Time;durP1;ratioP1;P1;durP2;ratioP2;P2;SDS_P1;SDS_P2;PMS_P1;PMS_P2;Temp;Humidity;BMP_temperature;BMP_pressure;BME280_temperature;BME280_humidity;BME280_pressure;Samples;Min_cycle;Max_cycle;Signal;HPM_P1;HPM_P2
2021/05/25 00:01:54;;;;;;;;;;;10.20;99.90;;;;;;5054885;28;19935;-81
2021/05/25 00:04:19;;;;;;;;;;;10.20;99.90;;;;;;5054902;28;19905;-80
2021/05/25 00:06:45;;;;;;;;;;;10.20;99.90;;;;;;5054986;28;20414;-81
2021/05/25 00:09:10;;;;;;;;;;;10.30;99.90;;;;;;5055862;28;19939;-81
2021/05/25 00:11:36;;;;;;;;;;;10.20;99.90;;;;;;5054661;28;19908;-81
2021/05/25 00:14:03;;;;;;;;;;;10.20;99.90;;;;;;5055940;28;19974;-81
2021/05/25 00:16:29;;;;;;;;;;;10.20;99.90;;;;;;5054752;28;20288;-81
2021/05/25 00:18:54;;;;;;;;;;;10.20;99.90;;;;;;5054783;28;19905;-81
2021/05/25 00:21:20;;;;;;;;;;;10.10;99.90;;;;;;5054540;28;20434;-81
2021/05/25 00:23:45;;;;;;;;;;;10.00;99.90;;;;;;5054695;28;19909;-80
2021/05/25 00:26:11;;;;;;;;;;;9.90;99.90;;;;;;5054471;28;19956;-79
2021/05/25 00:28:36;;;;;;;;;;;10.00;99.90;;;;;;5054384;28;20399;-79
2021/05/25 00:31:02;;;;;;;;;;;10.00;99.90;;;;;;5054413;28;19931;-80
2021/05/25 00:33:27;;;;;;;;;;;10.00;99.90;;;;;;5054455;28;20292;-82
2021/05/25 00:35:55;;;;;;;;;;;10.00;99.90;;;;;;5054345;28;19905;-80
2021/05/25 00:38:20;;;;;;;;;;;10.00;99.90;;;;;;5054172;28;19981;-82
2021/05/25 00:40:46;;;;;;;;;;;10.00;99.90;;;;;;5054075;28;19951;-81
2021/05/25 00:43:11;;;;;;;;;;;9.90;99.90;;;;;;5054250;28;19948;-79
2021/05/25 00:45:37;;;;;;;;;;;9.80;99.90;;;;;;5054117;28;19909;-79
2021/05/25 00:48:02;;;;;;;;;;;9.80;99.90;;;;;;5053946;28;20352;-81
2021/05/25 00:50:29;;;;;;;;;;;9.90;99.90;;;;;;5053729;28;19908;-81
2021/05/25 00:52:59;;;;;;;;;;;9.90;99.90;;;;;;5054074;28;19974;-79
2021/05/25 00:55:26;;;;;;;;;;;9.90;99.90;;;;;;5054263;28;20364;-81
2021/05/25 00:57:52;;;;;;;;;;;9.80;99.90;;;;;;5054266;28;19912;-81
2021/05/25 01:00:20;;;;;;;;;;;9.90;99.90;;;;;;5054986;28;20303;-81
2021/05/25 01:02:46;;;;;;;;;;;9.80;99.90;;;;;;5053934;28;20062;-82
2021/05/25 01:05:12;;;;;;;;;;;9.70;99.90;;;;;;5054015;28;19952;-80
2021/05/25 01:07:39;;;;;;;;;;;9.70;99.90;;;;;;5053706;28;20322;-81
2021/05/25 01:10:06;;;;;;;;;;;9.70;99.90;;;;;;5053397;28;19972;-79
2021/05/25 01:12:33;;;;;;;;;;;9.70;99.90;;;;;;5053790;28;19905;-79
2021/05/25 01:15:04;;;;;;;;;;;9.70;99.90;;;;;;5053488;28;20267;-80
2021/05/25 01:17:30;;;;;;;;;;;9.60;99.90;;;;;;5054414;28;19987;-80
2021/05/25 01:19:57;;;;;;;;;;;9.50;99.90;;;;;;5053388;28;20434;-82
2021/05/25 01:22:23;;;;;;;;;;;9.40;99.90;;;;;;5053503;28;19908;-81
2021/05/25 01:24:48;;;;;;;;;;;9.40;99.90;;;;;;5053706;28;19911;-82
2021/05/25 01:27:14;;;;;;;;;;;9.40;99.90;;;;;;5053622;28;20315;-82
2021/05/25 01:29:39;;;;;;;;;;;9.30;99.90;;;;;;5053279;28;19934;-83
2021/05/25 01:32:05;;;;;;;;;;;9.30;99.90;;;;;;5054580;28;19911;-83
2021/05/25 01:34:30;;;;;;;;;;;9.30;99.90;;;;;;5053652;28;19905;-81
2021/05/25 01:36:56;;;;;;;;;;;9.20;99.90;;;;;;5053438;28;20334;-80
2021/05/25 01:39:21;;;;;;;;;;;9.30;99.90;;;;;;5053229;28;19905;-82
2021/05/25 01:41:50;;;;;;;;;;;9.30;99.90;;;;;;5053240;28;19904;-80
2021/05/25 01:44:16;;;;;;;;;;;9.30;99.90;;;;;;5053396;28;19908;-80
2021/05/25 01:46:45;;;;;;;;;;;9.40;99.90;;;;;;5053330;28;20348;-80
2021/05/25 01:49:11;;;;;;;;;;;9.50;99.90;;;;;;5052933;28;19916;-82
2021/05/25 01:51:36;;;;;;;;;;;9.50;99.90;;;;;;5060694;28;19908;-80
2021/05/25 01:54:02;;;;;;;;;;;9.50;99.90;;;;;;5058551;28;19904;-83
2021/05/25 01:56:27;;;;;;;;;;;9.60;99.90;;;;;;5052843;28;19919;-82
2021/05/25 01:58:53;;;;;;;;;;;9.50;99.90;;;;;;5052643;28;19905;-81
2021/05/25 02:01:19;;;;;;;;;;;9.50;99.90;;;;;;5052053;28;20007;-82
2021/05/25 02:03:44;;;;;;;;;;;9.40;99.90;;;;;;5054144;28;19905;-83
2021/05/25 02:06:10;;;;;;;;;;;9.50;99.90;;;;;;5052709;28;19909;-81
2021/05/25 02:08:35;;;;;;;;;;;9.40;99.90;;;;;;5052420;28;19966;-82
2021/05/25 02:11:02;;;;;;;;;;;9.50;99.90;;;;;;5052528;28;19912;-80
2021/05/25 02:13:29;;;;;;;;;;;9.50;99.90;;;;;;5052541;28;19912;-82
2021/05/25 02:15:55;;;;;;;;;;;9.50;99.90;;;;;;5052679;28;19905;-80
2021/05/25 02:18:22;;;;;;;;;;;9.50;99.90;;;;;;5052268;28;19947;-79
2021/05/25 02:20:48;;;;;;;;;;;9.40;99.90;;;;;;5052401;28;20406;-82
2021/05/25 02:23:14;;;;;;;;;;;9.50;99.90;;;;;;5052538;28;19912;-82
2021/05/25 02:25:40;;;;;;;;;;;9.50;99.90;;;;;;5052556;28;19905;-81
2021/05/25 02:28:06;;;;;;;;;;;9.40;99.90;;;;;;5052347;28;20298;-82
2021/05/25 02:30:32;;;;;;;;;;;9.40;99.90;;;;;;5052051;28;19963;-82
2021/05/25 02:32:59;;;;;;;;;;;9.40;99.90;;;;;;5052568;28;19905;-81
2021/05/25 02:35:25;;;;;;;;;;;9.30;99.90;;;;;;5052372;28;19908;-83
2021/05/25 02:37:50;;;;;;;;;;;9.20;99.90;;;;;;5052378;28;20370;-80
2021/05/25 02:40:16;;;;;;;;;;;9.30;99.90;;;;;;5052226;28;19912;-83
2021/05/25 02:42:41;;;;;;;;;;;9.30;99.90;;;;;;5052545;28;19911;-80
2021/05/25 02:45:07;;;;;;;;;;;9.40;99.90;;;;;;5053013;28;19905;-79
2021/05/25 02:47:33;;;;;;;;;;;9.50;99.90;;;;;;5052697;28;19927;-80
2021/05/25 02:50:06;;;;;;;;;;;9.60;99.90;;;;;;5052498;28;20099;-80
2021/05/25 02:52:32;;;;;;;;;;;9.50;99.90;;;;;;5053099;28;19909;-82
2021/05/25 02:54:58;;;;;;;;;;;9.50;99.90;;;;;;5052717;28;20276;-80
2021/05/25 02:57:23;;;;;;;;;;;9.60;99.90;;;;;;5052555;28;19999;-82
2021/05/25 02:59:49;;;;;;;;;;;9.60;99.90;;;;;;5052838;28;20356;-83
2021/05/25 03:02:14;;;;;;;;;;;9.50;99.90;;;;;;5052834;28;19966;-82
2021/05/25 03:04:40;;;;;;;;;;;9.60;99.90;;;;;;5053806;28;19905;-83
2021/05/25 03:07:05;;;;;;;;;;;9.50;99.90;;;;;;5053921;28;19909;-82
2021/05/25 03:09:31;;;;;;;;;;;9.60;99.90;;;;;;5054438;28;19909;-80
2021/05/25 03:11:56;;;;;;;;;;;9.70;99.90;;;;;;5054623;28;20430;-80
2021/05/25 03:14:23;;;;;;;;;;;9.60;99.90;;;;;;5054743;28;19905;-82
2021/05/25 03:16:49;;;;;;;;;;;9.70;99.90;;;;;;5055582;28;19904;-80
2021/05/25 03:19:14;;;;;;;;;;;9.80;99.90;;;;;;5056694;28;19912;-80
2021/05/25 03:21:40;;;;;;;;;;;9.80;99.90;;;;;;5056497;28;20414;-82
2021/05/25 03:24:05;;;;;;;;;;;9.80;99.90;;;;;;5058009;28;19908;-82
2021/05/25 03:26:31;;;;;;;;;;;9.80;99.90;;;;;;5060848;28;19924;-81
2021/05/25 03:28:56;;;;;;;;;;;9.80;99.90;;;;;;5059093;28;19908;-80
2021/05/25 03:31:22;;;;;;;;;;;9.80;99.90;;;;;;5061727;28;19911;-80
2021/05/25 03:33:47;;;;;;;;;;;9.90;99.90;;;;;;5064935;28;19905;-80
2021/05/25 03:36:13;;;;;;;;;;;9.90;99.90;;;;;;5067921;28;19935;-80
2021/05/25 03:38:38;;;;;;;;;;;9.80;99.90;;;;;;5072234;28;19905;-80
2021/05/25 03:41:04;;;;;;;;;;;9.80;99.90;;;;;;5073757;28;20350;-79
2021/05/25 03:43:29;;;;;;;;;;;9.90;99.90;;;;;;5073271;28;19905;-80
2021/05/25 03:45:55;;;;;;;;;;;9.90;99.90;;;;;;5073401;28;19889;-80
2021/05/25 03:48:20;;;;;;;;;;;9.90;99.90;;;;;;5073133;28;19909;-79
2021/05/25 03:50:45;;;;;;;;;;;9.90;99.90;;;;;;5073247;28;19931;-80
2021/05/25 03:53:11;;;;;;;;;;;9.90;99.90;;;;;;5072889;28;19904;-79
2021/05/25 04:00:52;;;;;;;;;;;9.80;99.90;;;;;;5074241;28;19900;-81
2021/05/25 04:03:18;;;;;;;;;;;9.90;99.90;;;;;;5073208;28;19967;-80
2021/05/25 04:05:43;;;;;;;;;;;9.90;99.90;;;;;;5072995;28;19982;-80
2021/05/25 04:08:09;;;;;;;;;;;9.90;99.90;;;;;;5072740;28;19905;-80
2021/05/25 04:10:35;;;;;;;;;;;9.90;99.90;;;;;;5073604;28;19909;-79
2021/05/25 04:13:00;;;;;;;;;;;10.00;99.90;;;;;;5073885;28;19915;-79
2021/05/25 04:15:26;;;;;;;;;;;9.90;99.90;;;;;;5074232;28;19924;-79
2021/05/25 04:17:55;;;;;;;;;;;9.90;99.90;;;;;;5074266;28;19911;-79
2021/05/25 04:20:21;;;;;;;;;;;10.00;99.90;;;;;;5074066;28;19909;-79
2021/05/25 04:22:47;;;;;;;;;;;10.00;99.90;;;;;;5075317;28;19901;-79
2021/05/25 04:25:12;;;;;;;;;;;10.00;99.90;;;;;;5078740;28;19939;-80
2021/05/25 04:27:38;;;;;;;;;;;10.00;99.90;;;;;;5077778;28;19888;-79
2021/05/25 04:30:05;;;;;;;;;;;10.00;99.90;;;;;;5076568;28;19909;-79
2021/05/25 04:32:30;;;;;;;;;;;10.00;99.90;;;;;;5059961;28;19956;-79
2021/05/25 04:34:56;;;;;;;;;;;10.10;99.90;;;;;;5076600;28;19909;-80
2021/05/25 04:37:22;;;;;;;;;;;10.00;99.90;;;;;;5075617;28;19897;-80
2021/05/25 04:39:47;;;;;;;;;;;10.10;99.90;;;;;;5076499;28;19935;-80
2021/05/25 04:42:14;;;;;;;;;;;10.10;99.90;;;;;;5077660;28;19908;-82
2021/05/25 04:44:39;;;;;;;;;;;10.00;99.90;;;;;;5076220;28;19919;-81
2021/05/25 04:47:05;;;;;;;;;;;10.10;99.90;;;;;;5074671;28;19905;-82
2021/05/25 04:49:32;;;;;;;;;;;10.10;99.90;;;;;;5068062;28;19909;-79
2021/05/25 04:51:57;;;;;;;;;;;10.20;99.90;;;;;;5072067;28;19905;-78
2021/05/25 04:54:23;;;;;;;;;;;10.20;99.90;;;;;;5073297;28;19905;-81
2021/05/25 04:56:48;;;;;;;;;;;10.40;99.90;;;;;;5075029;28;19904;-79
2021/05/25 04:59:14;;;;;;;;;;;10.40;99.90;;;;;;5072524;28;19893;-80
2021/05/25 05:01:39;;;;;;;;;;;10.50;99.90;;;;;;5074453;28;19904;-81
2021/05/25 05:04:05;;;;;;;;;;;10.50;99.90;;;;;;5075772;28;19915;-78
2021/05/25 05:06:30;;;;;;;;;;;10.40;99.90;;;;;;5073877;28;20410;-79
2021/05/25 05:08:56;;;;;;;;;;;10.40;99.90;;;;;;5068568;28;19947;-80
2021/05/25 05:11:22;;;;;;;;;;;10.40;99.90;;;;;;5075048;28;19905;-82
2021/05/25 05:13:47;;;;;;;;;;;10.30;99.90;;;;;;5075245;28;20509;-79
2021/05/25 05:16:13;;;;;;;;;;;10.40;99.90;;;;;;5074131;28;19897;-79
2021/05/25 05:18:38;;;;;;;;;;;10.50;99.90;;;;;;5081943;28;19930;-80
2021/05/25 05:21:04;;;;;;;;;;;10.50;99.90;;;;;;5090001;28;20283;-82
2021/05/25 05:23:29;;;;;;;;;;;10.60;99.90;;;;;;5057927;28;19975;-81
2021/05/25 05:25:55;;;;;;;;;;;10.60;99.90;;;;;;5072757;28;19912;-80
2021/05/25 05:28:21;;;;;;;;;;;10.50;99.90;;;;;;5072800;28;19982;-80
2021/05/25 05:30:46;;;;;;;;;;;10.50;99.90;;;;;;5072488;28;19947;-80
2021/05/25 05:33:12;;;;;;;;;;;10.70;99.90;;;;;;5072789;28;20075;-80
2021/05/25 05:35:37;;;;;;;;;;;10.60;99.90;;;;;;5071404;28;19950;-82
2021/05/25 05:38:03;;;;;;;;;;;10.60;99.90;;;;;;5072707;28;20283;-82
2021/05/25 05:40:28;;;;;;;;;;;10.50;99.90;;;;;;5072557;28;19957;-81
2021/05/25 05:42:54;;;;;;;;;;;10.60;99.90;;;;;;5072475;28;19908;-82
2021/05/25 05:45:21;;;;;;;;;;;10.70;99.90;;;;;;5072635;28;19908;-82
2021/05/25 05:47:47;;;;;;;;;;;10.70;99.90;;;;;;5071695;28;20325;-82
2021/05/25 05:50:12;;;;;;;;;;;10.80;99.90;;;;;;5056267;28;19917;-80
2021/05/25 05:52:39;;;;;;;;;;;10.80;99.90;;;;;;5073261;28;19949;-81
2021/05/25 05:55:05;;;;;;;;;;;10.70;99.90;;;;;;5072122;28;20371;-79
2021/05/25 05:57:31;;;;;;;;;;;10.70;99.90;;;;;;5071828;28;19904;-80
2021/05/25 05:59:57;;;;;;;;;;;10.70;99.90;;;;;;5071854;28;19905;-80
2021/05/25 06:02:22;;;;;;;;;;;10.60;99.90;;;;;;5071877;28;20029;-79
2021/05/25 06:04:47;;;;;;;;;;;10.50;99.90;;;;;;5070048;28;19944;-81
2021/05/25 06:07:13;;;;;;;;;;;10.50;99.90;;;;;;5072143;28;19977;-80
2021/05/25 06:09:39;;;;;;;;;;;10.50;99.90;;;;;;5062563;28;19908;-80
2021/05/25 06:12:04;;;;;;;;;;;10.50;99.90;;;;;;5061379;28;19913;-80
2021/05/25 06:14:30;;;;;;;;;;;10.40;99.90;;;;;;5062339;28;19912;-80
2021/05/25 06:16:58;;;;;;;;;;;10.50;99.90;;;;;;5063323;28;19997;-82
2021/05/25 06:19:24;;;;;;;;;;;10.60;99.90;;;;;;5063321;28;19904;-81
2021/05/25 06:21:49;;;;;;;;;;;10.60;99.90;;;;;;5059179;28;20003;-82
2021/05/25 06:24:15;;;;;;;;;;;10.70;99.90;;;;;;5062968;28;19904;-82
2021/05/25 06:26:41;;;;;;;;;;;10.70;99.90;;;;;;5067190;28;19958;-78
2021/05/25 06:29:06;;;;;;;;;;;10.70;99.90;;;;;;5054496;28;19956;-82
2021/05/25 06:31:32;;;;;;;;;;;10.60;99.90;;;;;;5060214;28;19908;-81
2021/05/25 06:33:57;;;;;;;;;;;10.60;99.90;;;;;;5066318;28;19962;-79
2021/05/25 06:36:24;;;;;;;;;;;10.60;99.90;;;;;;5063333;28;19991;-81
2021/05/25 06:38:50;;;;;;;;;;;10.60;99.90;;;;;;5068433;28;19927;-79
2021/05/25 06:41:15;;;;;;;;;;;10.70;99.90;;;;;;5063099;28;20360;-79
2021/05/25 06:43:41;;;;;;;;;;;10.80;99.90;;;;;;5059779;28;19927;-80
2021/05/25 06:46:07;;;;;;;;;;;10.90;99.90;;;;;;5059234;28;19966;-79
2021/05/25 06:48:33;;;;;;;;;;;10.90;99.90;;;;;;5051383;28;19911;-79
2021/05/25 06:51:00;;;;;;;;;;;11.00;99.90;;;;;;5068707;28;19972;-81
2021/05/25 06:53:26;;;;;;;;;;;11.10;99.90;;;;;;5071518;28;20295;-81
2021/05/25 06:55:51;;;;;;;;;;;11.10;99.90;;;;;;5062316;28;19905;-81
2021/05/25 06:58:17;;;;;;;;;;;11.10;99.90;;;;;;5062357;28;19912;-79
2021/05/25 07:00:42;;;;;;;;;;;11.20;99.90;;;;;;5051107;28;19904;-81
2021/05/25 07:03:08;;;;;;;;;;;11.10;99.90;;;;;;5063938;28;19904;-81
2021/05/25 07:05:33;;;;;;;;;;;11.20;99.90;;;;;;5072752;28;20342;-81
2021/05/25 07:07:59;;;;;;;;;;;11.00;99.90;;;;;;5071908;28;19911;-80
2021/05/25 07:10:24;;;;;;;;;;;10.90;99.90;;;;;;5070842;28;19995;-81
2021/05/25 07:12:50;;;;;;;;;;;10.90;99.90;;;;;;5071325;28;19954;-81
2021/05/25 07:15:16;;;;;;;;;;;10.80;99.90;;;;;;5071353;28;20332;-81
2021/05/25 07:17:56;;;;;;;;;;;10.60;99.90;;;;;;5071941;28;19954;-80
2021/05/25 07:20:21;;;;;;;;;;;10.60;99.90;;;;;;5071132;28;19931;-80
2021/05/25 07:22:51;;;;;;;;;;;10.60;99.90;;;;;;5071286;28;19906;-80
2021/05/25 07:25:17;;;;;;;;;;;10.60;99.90;;;;;;5071712;28;19972;-80
2021/05/25 07:27:43;;;;;;;;;;;10.50;99.90;;;;;;5071393;28;19927;-80
2021/05/25 07:30:08;;;;;;;;;;;10.50;99.90;;;;;;5072196;28;19908;-80
2021/05/25 07:32:34;;;;;;;;;;;10.50;99.90;;;;;;5071562;28;19926;-80
2021/05/25 07:34:59;;;;;;;;;;;10.70;99.90;;;;;;5071215;28;19904;-80
2021/05/25 07:37:25;;;;;;;;;;;10.70;99.90;;;;;;5071414;28;19904;-80
2021/05/25 07:39:50;;;;;;;;;;;10.90;99.90;;;;;;5071139;28;19993;-80
2021/05/25 07:42:16;;;;;;;;;;;11.10;99.90;;;;;;5071140;28;19908;-80
2021/05/25 07:44:41;;;;;;;;;;;11.20;99.90;;;;;;5071227;28;20010;-81
2021/05/25 07:47:07;;;;;;;;;;;11.20;99.90;;;;;;5071088;28;19905;-81
2021/05/25 07:49:34;;;;;;;;;;;11.00;99.90;;;;;;5070812;28;19908;-80
2021/05/25 07:52:00;;;;;;;;;;;10.70;99.90;;;;;;5073884;28;19912;-81
2021/05/25 07:54:26;;;;;;;;;;;10.60;99.90;;;;;;5071289;28;19927;-81
2021/05/25 07:56:51;;;;;;;;;;;10.60;99.90;;;;;;5071328;28;20411;-80
2021/05/25 07:59:17;;;;;;;;;;;10.40;99.90;;;;;;5073145;28;19962;-80
2021/05/25 08:01:42;;;;;;;;;;;10.50;99.90;;;;;;5075031;28;20279;-81
2021/05/25 08:04:08;;;;;;;;;;;10.70;99.90;;;;;;5075024;28;19958;-80
2021/05/25 08:06:36;;;;;;;;;;;10.50;99.90;;;;;;5074856;28;19905;-80
2021/05/25 08:09:03;;;;;;;;;;;10.30;99.90;;;;;;5074883;28;19908;-81
2021/05/25 08:11:28;;;;;;;;;;;10.20;99.90;;;;;;5072866;28;19908;-80
2021/05/25 08:13:54;;;;;;;;;;;10.20;99.90;;;;;;5054906;28;19905;-81
2021/05/25 08:16:23;;;;;;;;;;;10.20;99.90;;;;;;5072103;28;19955;-80
2021/05/25 08:19:10;;;;;;;;;;;10.50;99.90;;;;;;5074476;28;20386;-81
2021/05/25 08:21:35;;;;;;;;;;;10.60;99.90;;;;;;5075211;28;19912;-81
2021/05/25 08:24:00;;;;;;;;;;;10.90;99.90;;;;;;5074395;28;19940;-81
2021/05/25 08:26:27;;;;;;;;;;;12.30;99.90;;;;;;5074360;28;19962;-81
2021/05/25 08:28:53;;;;;;;;;;;12.60;99.90;;;;;;5074026;28;19915;-81
2021/05/25 08:31:18;;;;;;;;;;;12.70;99.90;;;;;;5066633;28;19909;-81
2021/05/25 08:33:44;;;;;;;;;;;12.10;99.90;;;;;;5055284;28;19995;-81
2021/05/25 08:36:10;;;;;;;;;;;11.80;99.90;;;;;;5062693;28;19959;-80
2021/05/25 08:38:36;;;;;;;;;;;11.50;99.90;;;;;;5074111;28;19904;-81
2021/05/25 08:41:03;;;;;;;;;;;11.10;99.90;;;;;;5074804;28;19911;-80
2021/05/25 08:43:28;;;;;;;;;;;10.90;99.90;;;;;;5054972;28;19948;-81
2021/05/25 08:45:54;;;;;;;;;;;11.00;99.90;;;;;;5053952;28;20372;-81
2021/05/25 08:48:19;;;;;;;;;;;11.20;99.90;;;;;;5053764;28;20003;-81
2021/05/25 08:50:45;;;;;;;;;;;11.30;99.90;;;;;;5053992;28;19956;-81
2021/05/25 08:53:11;;;;;;;;;;;11.20;99.90;;;;;;5053952;28;19905;-80
2021/05/25 08:55:37;;;;;;;;;;;11.50;99.90;;;;;;5073200;28;20375;-81
2021/05/25 08:58:05;;;;;;;;;;;11.40;99.90;;;;;;5073447;28;19911;-81
2021/05/25 09:00:30;;;;;;;;;;;11.60;99.90;;;;;;5073558;28;19927;-80
2021/05/25 09:02:56;;;;;;;;;;;11.80;99.90;;;;;;5073485;28;20356;-80
2021/05/25 09:05:22;;;;;;;;;;;11.80;99.90;;;;;;5073915;28;19982;-80
2021/05/25 09:07:52;;;;;;;;;;;12.30;99.90;;;;;;5067783;28;19908;-80
2021/05/25 09:10:19;;;;;;;;;;;12.60;99.90;;;;;;5064064;28;20288;-79
2021/05/25 09:12:46;;;;;;;;;;;12.60;99.90;;;;;;5060483;28;20001;-80
2021/05/25 09:15:12;;;;;;;;;;;12.20;99.90;;;;;;5063371;28;19911;-81
2021/05/25 09:17:38;;;;;;;;;;;12.00;99.90;;;;;;5061933;28;20010;-81
2021/05/25 09:20:03;;;;;;;;;;;11.90;99.90;;;;;;5060868;28;19908;-80
2021/05/25 09:22:29;;;;;;;;;;;11.90;99.90;;;;;;5064295;28;19909;-81
2021/05/25 09:24:55;;;;;;;;;;;11.70;99.90;;;;;;5061942;28;20348;-81
2021/05/25 09:27:27;;;;;;;;;;;11.60;99.90;;;;;;5063591;28;19911;-81
2021/05/25 09:29:53;;;;;;;;;;;11.60;99.90;;;;;;5061818;28;20007;-81
2021/05/25 09:32:18;;;;;;;;;;;11.80;99.90;;;;;;5062941;28;19940;-81
2021/05/25 09:34:44;;;;;;;;;;;12.30;99.90;;;;;;5063486;28;19911;-81
2021/05/25 09:37:09;;;;;;;;;;;13.20;99.90;;;;;;5062182;28;19904;-81
2021/05/25 09:39:41;;;;;;;;;;;13.50;99.90;;;;;;5062855;28;19954;-81
2021/05/25 09:42:07;;;;;;;;;;;13.20;99.90;;;;;;5064430;28;19913;-81
2021/05/25 09:44:34;;;;;;;;;;;13.20;99.90;;;;;;5059304;28;19909;-81
2021/05/25 09:47:01;;;;;;;;;;;13.40;99.90;;;;;;5053574;28;20332;-81
2021/05/25 09:49:30;;;;;;;;;;;13.90;99.90;;;;;;5071889;28;20290;-80
2021/05/25 09:52:05;;;;;;;;;;;14.20;99.90;;;;;;5073220;28;19915;-81
2021/05/25 09:54:32;;;;;;;;;;;13.70;99.90;;;;;;5071847;28;19995;-80
2021/05/25 09:56:58;;;;;;;;;;;13.20;99.90;;;;;;5072084;28;19999;-81
2021/05/25 09:59:30;;;;;;;;;;;12.90;99.90;;;;;;5071795;28;19905;-81
2021/05/25 10:01:55;;;;;;;;;;;12.80;99.90;;;;;;5075121;28;19915;-81
2021/05/25 10:04:22;;;;;;;;;;;12.70;99.90;;;;;;5059811;28;19905;-80
2021/05/25 10:06:48;;;;;;;;;;;12.50;99.90;;;;;;5055168;28;19904;-81
2021/05/25 10:09:14;;;;;;;;;;;12.40;99.90;;;;;;5053530;28;20449;-80
2021/05/25 10:14:17;;;;;;;0.95;0.30;;;11.90;99.90;;;;;;5944753;23;20727;-79
2021/05/25 10:16:53;;;;;;;;;;;11.90;99.90;;;;;;5019649;28;19928;-79
2021/05/25 10:26:58;;;;;;;;;;;13.00;99.90;;;;;;5746271;22;19925;-80
2021/05/25 10:29:24;;;;;;;;;;;13.50;99.90;;;;;;5017876;28;20311;-81
2021/05/25 10:37:05;;;;;;;;;;;16.30;99.90;;;;;;5958559;22;20016;-80
2021/05/25 10:39:45;;;;;;;;;;;16.20;99.90;;;;;;5052053;28;19913;-80
2021/05/25 10:42:21;;;;;;;;;;;16.20;99.90;;;;;;5033498;28;19909;-80
2021/05/25 10:44:50;;;;;;;;;;;17.00;99.90;;;;;;5033298;28;19991;-80
2021/05/25 10:47:25;;;;;;;1.48;0.60;;;15.80;99.90;;;;;;5034656;28;19911;-79
2021/05/25 10:49:54;;;;;;;;;;;15.20;99.90;;;;;;5033844;28;20025;-81
2021/05/25 10:52:22;;;;;;;;;;;14.80;99.90;;;;;;5035506;28;24068;-81
2021/05/25 10:54:51;;;;;;;;;;;13.90;99.90;;;;;;5033922;28;19996;-81
2021/05/25 10:57:31;;;;;;;;;;;13.60;99.90;;;;;;5035523;28;19948;-81
2021/05/25 11:00:07;;;;;;;;;;;12.90;99.90;;;;;;5034295;28;19927;-81
2021/05/25 11:02:42;;;;;;;;;;;12.70;99.90;;;;;;5043544;28;20052;-80
2021/05/25 11:05:27;;;;;;;;;;;12.90;99.90;;;;;;5046060;28;20503;-80
2021/05/25 11:07:53;;;;;;;;;;;12.80;99.90;;;;;;5043392;28;20037;-80
2021/05/25 11:10:38;;;;;;;;;;;12.60;99.90;;;;;;5045943;28;19908;-80
2021/05/25 11:13:16;;;;;;;;;;;12.00;99.90;;;;;;5046867;28;19905;-80
2021/05/25 11:16:06;;;;;;;;;;;11.80;99.90;;;;;;5037798;28;19935;-80
2021/05/25 11:18:38;;;;;;;;;;;11.80;99.90;;;;;;5042906;28;19905;-81
2021/05/25 11:23:39;;;;;;;;;;;12.00;99.90;;;;;;5042630;28;19905;-81
2021/05/25 11:26:05;;;;;;;;;;;12.10;99.90;;;;;;5039889;28;19995;-80
2021/05/25 11:28:49;;;;;;;;;;;12.10;99.90;;;;;;5035689;28;19968;-81
2021/05/25 11:31:33;;;;;;;;;;;12.00;99.90;;;;;;5036038;28;20361;-80
2021/05/25 11:34:03;;;;;;;;;;;12.10;99.90;;;;;;5040380;28;19909;-81
2021/05/25 11:36:29;;;;;;;;;;;12.20;99.90;;;;;;5043197;28;20360;-80
2021/05/25 11:38:55;;;;;;;;;;;12.70;99.90;;;;;;5033605;28;19905;-80
2021/05/25 11:41:20;;;;;;;;;;;13.20;99.90;;;;;;5048530;28;19920;-81
2021/05/25 11:43:47;;;;;;;;;;;13.80;99.90;;;;;;5050163;28;19905;-80
2021/05/25 11:46:18;;;;;;;;;;;13.80;99.90;;;;;;5049518;28;19963;-81
2021/05/25 11:48:49;;;;;;;;;;;14.30;99.90;;;;;;5039635;28;19905;-81
2021/05/25 11:51:18;;;;;;;;;;;14.60;99.90;;;;;;5038239;28;19909;-81
2021/05/25 11:53:43;;;;;;;;;;;15.00;99.90;;;;;;5037923;28;20295;-81
2021/05/25 11:56:12;;;;;;;;;;;15.20;99.90;;;;;;5037482;28;19917;-80
2021/05/25 11:58:37;;;;;;;;;;;15.70;99.90;;;;;;5038332;28;19912;-79
2021/05/25 12:01:07;;;;;;;;;;;15.90;99.90;;;;;;5037791;28;19909;-81
2021/05/25 12:03:43;;;;;;;;;;;16.10;99.90;;;;;;5041025;28;19905;-81
2021/05/25 12:06:15;;;;;;;;;;;15.90;99.90;;;;;;5023844;28;20103;-80
2021/05/25 12:08:43;;;;;;;;;;;16.30;99.90;;;;;;5038223;28;19912;-80
2021/05/25 12:11:09;;;;;;;;;;;16.20;99.90;;;;;;5037853;28;20075;-80
2021/05/25 12:13:34;;;;;;;;;;;16.10;99.90;;;;;;5038973;28;19905;-77
2021/05/25 12:16:01;;;;;;;;;;;16.50;99.90;;;;;;5036243;28;20104;-78
2021/05/25 12:18:27;;;;;;;;;;;16.80;99.90;;;;;;5033581;28;19959;-77
2021/05/25 12:20:54;;;;;;;;;;;17.00;99.90;;;;;;5033595;28;20019;-77
2021/05/25 12:23:20;;;;;;;;;;;17.00;99.90;;;;;;5033743;28;19909;-77
2021/05/25 12:25:50;;;;;;;;;;;17.20;99.90;;;;;;5034101;28;20095;-76
2021/05/25 12:28:24;;;;;;;;;;;17.50;99.90;;;;;;5032995;28;20035;-77
2021/05/25 12:30:50;;;;;;;;;;;17.20;99.90;;;;;;5033059;28;19913;-76
2021/05/25 12:33:27;;;;;;;;;;;17.30;99.90;;;;;;5032817;28;20368;-76
2021/05/25 12:35:53;;;;;;;;;;;17.30;99.90;;;;;;5034364;28;19905;-76
2021/05/25 12:38:22;;;;;;;;;;;17.20;99.90;;;;;;5032252;28;25059;-76
2021/05/25 12:40:58;;;;;;;;;;;17.30;99.90;;;;;;5035022;28;19928;-76
2021/05/25 12:43:24;;;;;;;;;;;16.80;99.90;;;;;;5033680;28;19905;-78
2021/05/25 12:45:51;;;;;;;;;;;17.00;99.90;;;;;;5033065;28;19984;-77
2021/05/25 12:48:18;;;;;;;;;;;17.30;99.90;;;;;;5034029;28;20000;-76
2021/05/25 12:50:44;;;;;;;;;;;17.40;99.90;;;;;;5032731;28;19909;-76
2021/05/25 12:53:11;;;;;;;;;;;17.60;99.90;;;;;;5033352;28;20391;-77
2021/05/25 12:55:51;;;;;;;;;;;18.10;99.90;;;;;;5032463;28;20384;-77
2021/05/25 12:58:36;;;;;;;;;;;18.10;99.90;;;;;;5031993;28;20292;-76
2021/05/25 13:01:17;;;;;;;;;;;18.10;99.90;;;;;;5032113;28;20324;-77
2021/05/25 13:03:42;;;;;;;;;;;18.10;99.90;;;;;;5013979;28;20017;-81
2021/05/25 13:12:36;;;;;;;;;;;17.90;99.90;;;;;;5018324;28;20016;-78
2021/05/25 13:15:03;;;;;;;;;;;18.10;99.90;;;;;;4950525;29;19929;-80
2021/05/25 13:17:32;;;;;;;;;;;17.40;99.90;;;;;;4979074;28;19905;-80
2021/05/25 13:19:57;;;;;;;;;;;17.00;99.90;;;;;;4996601;28;19913;-80
2021/05/25 13:22:23;;;;;;;;;;;16.40;99.90;;;;;;4996388;28;19913;-79
2021/05/25 13:25:11;;;;;;;;;;;16.00;99.90;;;;;;4998033;28;19906;-80
2021/05/25 13:27:37;;;;;;;;;;;15.50;99.90;;;;;;5015534;28;19936;-80
2021/05/25 13:30:24;;;;;;;;;;;14.90;99.90;;;;;;5014578;28;19985;-79
2021/05/25 13:36:07;;;;;;;;;;;15.30;99.90;;;;;;4998279;28;19925;-78
2021/05/25 13:38:34;;;;;;;;;;;16.80;99.90;;;;;;5011340;28;19937;-78
2021/05/25 13:41:00;;;;;;;;;;;17.20;99.90;;;;;;5000065;28;19944;-80
2021/05/25 13:43:25;;;;;;;;;;;17.20;99.90;;;;;;4997636;28;19910;-79
2021/05/25 13:45:50;;;;;;;;;;;17.50;99.90;;;;;;4997587;28;19937;-78
2021/05/25 13:48:16;;;;;;;;;;;17.20;99.90;;;;;;4998161;28;19943;-80
2021/05/25 13:50:41;;;;;;;;;;;17.70;99.90;;;;;;4996655;28;19902;-78
2021/05/25 13:53:07;;;;;;;;;;;18.10;99.90;;;;;;4999649;28;19898;-78
2021/05/25 13:59:30;;;;;;;;;;;17.90;99.90;;;;;;5058089;28;19969;-78
2021/05/25 14:02:14;;;;;;;1.70;0.50;;;17.70;99.90;;;;;;5006195;28;19984;-79
2021/05/25 14:05:17;;;;;;;0.57;0.45;;;17.10;99.90;;;;;;4983630;28;20027;-79
2021/05/25 14:07:51;;;;;;;0.20;0.20;;;16.70;99.90;;;;;;4977813;28;20018;-80
2021/05/25 14:10:17;;;;;;;0.98;0.25;;;16.80;99.90;;;;;;5016376;28;20053;-78
2021/05/25 14:12:43;;;;;;;;;;;16.70;99.90;;;;;;5004473;28;20122;-78
2021/05/25 14:15:08;;;;;;;;;;;16.40;99.90;;;;;;5004978;28;19962;-79
2021/05/25 14:17:34;;;;;;;;;;;16.20;99.90;;;;;;4995898;28;19909;-79
2021/05/25 14:19:59;;;;;;;;;;;16.00;99.90;;;;;;4997033;28;19988;-78
2021/05/25 14:22:25;;;;;;;;;;;15.90;99.90;;;;;;4995744;28;20004;-78
2021/05/25 14:24:53;;;;;;;;;;;16.00;99.90;;;;;;5025146;28;19905;-79
2021/05/25 14:27:19;;;;;;;;;;;16.30;99.90;;;;;;5015407;28;19899;-80
2021/05/25 14:29:50;;;;;;;;;;;16.10;99.90;;;;;;5017916;28;19956;-78
2021/05/25 14:32:24;;;;;;;;;;;15.60;99.90;;;;;;5016178;28;19905;-80
2021/05/25 14:34:50;;;;;;;;;;;15.30;99.90;;;;;;5009840;28;19913;-79
2021/05/25 14:37:16;;;;;;;;;;;15.50;99.90;;;;;;5014490;28;19893;-81
2021/05/25 14:40:23;;;;;;;;;;;16.10;99.90;;;;;;5036083;28;19993;-79
2021/05/25 14:43:30;;;;;;;;;;;16.60;99.90;;;;;;4995814;28;19930;-79
2021/05/25 14:45:58;;;;;;;;;;;17.10;99.90;;;;;;4985891;28;19921;-80
2021/05/25 14:48:24;;;;;;;;;;;16.50;99.90;;;;;;5010931;28;19905;-80
2021/05/25 14:50:49;;;;;;;;;;;16.30;99.90;;;;;;5024544;28;19925;-80
2021/05/25 14:55:46;;;;;;;;;;;16.50;99.90;;;;;;5034396;28;19909;-81
2021/05/25 14:58:13;;;;;;;;;;;17.00;99.90;;;;;;5018887;28;19912;-79
2021/05/25 15:00:52;;;;;;;;;;;17.50;99.90;;;;;;5026599;28;19905;-80